Time;durP1;ratioP1;P1;durP2;ratioP2;P2;SDS_P1;SDS_P2;PMS_P1;PMS_P2;Temp;Humidity;BMP_temperature;BMP_pressure;BME280_temperature;BME280_humidity;BME280_pressure;Samples;Min_cycle;Max_cycle;Signal;HPM_P1;HPM_P2
2023/07/13 07:01:21;;;;;;;0.10;0.10;;;20.50;99.90;22.20;101449.00;;;;6202903;22;1393197;-69
2023/07/13 07:03:49;;;;;;;0.57;0.57;;;19.50;99.90;21.00;101457.00;;;;6220846;23;20177;-70
2023/07/13 07:06:24;;;;;;;0.75;0.75;;;19.10;99.90;22.00;101464.00;;;;6247999;23;20200;-69
2023/07/13 07:08:51;;;;;;;3.30;0.52;;;19.00;99.90;22.10;101465.00;;;;6247503;23;20518;-68
2023/07/13 07:11:25;;;;;;;0.40;0.40;;;19.20;99.90;21.60;101470.00;;;;6246443;23;20142;-71
2023/07/13 07:13:54;;;;;;;2.20;1.65;;;19.30;99.90;23.60;101488.00;;;;6246786;23;20233;-69
2023/07/13 07:16:24;;;;;;;0.77;0.47;;;20.00;99.90;23.00;101495.00;;;;6248098;23;20172;-70
2023/07/13 07:18:53;;;;;;;3.95;1.38;;;20.40;99.90;21.70;101466.00;;;;6246838;23;20465;-69
2023/07/13 07:21:25;;;;;;;0.10;0.10;;;19.90;99.90;23.50;101465.00;;;;6248078;23;20142;-70
2023/07/13 07:24:09;;;;;;;0.40;0.40;;;20.00;99.90;24.10;101421.00;;;;6246729;23;20145;-70
2023/07/13 07:26:35;;;;;;;0.25;0.17;;;21.30;99.90;25.40;101501.00;;;;6247989;23;20432;-70
2023/07/13 07:29:01;;;;;;;1.00;0.40;;;21.80;99.90;25.90;101504.00;;;;6245983;23;20192;-71
2023/07/13 07:31:28;;;;;;;0.90;0.45;;;22.80;99.90;24.10;101494.00;;;;6220978;23;20158;-70
2023/07/13 07:33:56;;;;;;;0.10;0.10;;;22.20;99.90;23.70;101470.00;;;;6247942;23;20468;-70
2023/07/13 07:36:22;;;;;;;4.13;3.00;;;21.50;99.90;22.20;101466.00;;;;6248020;23;20200;-70
2023/07/13 07:38:48;;;;;;;0.10;0.10;;;21.10;99.90;24.60;101487.00;;;;6247579;23;20142;-70
2023/07/13 07:41:39;;;;;;;0.85;0.85;;;21.50;99.90;22.20;101439.00;;;;6247550;23;20158;-70
2023/07/13 07:44:07;;;;;;;0.10;0.10;;;20.80;99.90;25.20;101511.00;;;;6246353;23;20184;-70
2023/07/13 07:46:34;;;;;;;1.30;0.73;;;21.40;99.90;22.60;101484.00;;;;6221498;23;20161;-70
2023/07/13 07:48:59;;;;;;;0.10;0.10;;;20.80;99.90;25.80;101507.00;;;;6220729;23;20154;-71
2023/07/13 07:51:26;;;;;;;3.95;0.55;;;21.80;99.90;23.90;101459.00;;;;6247739;23;20161;-71
2023/07/13 07:53:52;;;;;;;12.27;0.95;;;22.20;99.90;25.50;101511.00;;;;6247507;22;20300;-69
2023/07/13 07:56:18;;;;;;;0.47;0.47;;;22.80;99.90;25.60;101502.00;;;;6247313;22;20169;-71
2023/07/13 07:58:47;;;;;;;3.80;1.77;;;22.90;99.90;25.70;101528.00;;;;6245921;23;20172;-71
2023/07/13 08:01:21;;;;;;;0.10;0.10;;;22.90;99.90;26.40;101518.00;;;;6246198;23;20166;-69
2023/07/13 08:03:46;;;;;;;0.20;0.20;;;23.10;99.90;30.00;101550.00;;;;6221242;23;20185;-69
2023/07/13 08:06:13;;;;;;;7.72;1.67;;;25.20;99.90;27.90;101621.00;;;;6245602;23;20158;-69
2023/07/13 08:08:39;;;;;;;0.10;0.10;;;25.70;99.90;25.70;101561.00;;;;6220977;23;20479;-71
2023/07/13 08:11:08;;;;;;;2.28;0.73;;;23.40;99.90;28.20;101582.00;;;;6247555;22;20153;-68
2023/07/13 08:13:41;;;;;;;2.75;2.13;;;24.50;99.90;26.50;101584.00;;;;6245815;23;20199;-71
2023/07/13 08:16:07;;;;;;;0.40;0.40;;;23.70;99.90;26.00;101559.00;;;;6245907;23;20166;-71
2023/07/13 08:18:49;;;;;;;2.85;1.50;;;23.20;99.90;25.50;101553.00;;;;6245632;23;20166;-71
2023/07/13 08:21:14;;;;;;;1.95;1.25;;;23.10;99.90;26.70;101558.00;;;;6247104;22;20157;-69
2023/07/13 08:23:40;;;;;;;4.60;1.45;;;23.60;99.90;27.10;101559.00;;;;6247416;23;20145;-70
2023/07/13 08:26:06;;;;;;;0.10;0.10;;;23.70;99.90;26.70;101533.00;;;;6245853;23;20153;-71
2023/07/13 08:28:33;;;;;;;2.25;0.70;;;23.40;99.90;26.60;101589.00;;;;6220492;23;20616;-71
2023/07/13 08:31:03;;;;;;;1.55;0.82;;;23.90;99.90;25.40;101555.00;;;;6220492;23;20689;-70
2023/07/13 08:33:31;;;;;;;0.10;0.10;;;23.00;99.90;28.30;101568.00;;;;6220383;23;20170;-69
2023/07/13 08:35:57;;;;;;;20.17;3.15;;;24.00;99.90;26.40;101588.00;;;;6247067;23;20200;-70
2023/07/13 08:38:23;;;;;;;1.00;0.70;;;23.60;99.90;26.00;101562.00;;;;6245781;23;20146;-70
2023/07/13 08:41:16;;;;;;;0.10;0.10;;;23.00;99.90;27.00;101549.00;;;;6246949;23;20157;-70
2023/07/13 08:43:46;;;;;;;1.10;1.00;;;23.30;99.90;29.30;101582.00;;;;6245350;23;20158;-69
2023/07/13 08:46:42;;;;;;;0.20;0.20;;;25.10;99.90;26.60;101586.00;;;;6245672;23;20169;-69
2023/07/13 08:49:16;;;;;;;0.73;0.73;;;23.90;99.90;24.90;101591.00;;;;6220893;23;20161;-70
2023/07/13 08:52:18;;;;;;;1.55;1.25;;;23.00;99.90;25.30;101590.00;;;;6245663;23;20180;-69
2023/07/13 08:54:52;;;;;;;1.85;1.42;;;22.50;99.90;25.20;101576.00;;;;6247073;22;20180;-69
2023/07/13 08:57:33;;;;;;;0.75;0.75;;;22.30;99.90;26.10;101578.00;;;;6245653;23;20237;-69
2023/07/13 09:00:04;;;;;;;2.58;1.27;;;22.80;99.90;24.80;101589.00;;;;6245439;23;20499;-70
2023/07/13 09:02:58;;;;;;;1.33;1.27;;;22.40;99.90;27.30;101570.00;;;;6247199;22;20149;-69
2023/07/13 09:05:38;;;;;;;3.33;0.85;;;23.10;99.90;25.30;101568.00;;;;6245516;23;20161;-70
2023/07/13 09:08:28;;;;;;;1.83;1.08;;;22.60;99.90;23.30;101593.00;;;;6220126;23;20272;-69
2023/07/13 09:11:32;;;;;;;2.30;0.50;;;21.50;99.90;23.10;101501.00;;;;6246995;23;20150;-68
2023/07/13 09:14:25;;;;;;;0.57;0.45;;;21.00;99.90;23.10;101534.00;;;;6244808;23;20643;-69
2023/07/13 09:16:51;;;;;;;2.30;1.33;;;20.70;99.90;22.30;101518.00;;;;6246177;22;20613;-69
2023/07/13 09:19:32;;;;;;;1.23;0.25;;;20.40;99.90;23.10;101538.00;;;;6245174;23;20142;-68
2023/07/13 09:21:59;;;;;;;1.95;0.88;;;20.70;99.90;23.10;101542.00;;;;6245077;23;20173;-68
2023/07/13 09:24:38;;;;;;;0.10;0.10;;;20.70;99.90;24.10;101538.00;;;;6245632;23;20154;-68
2023/07/13 09:27:19;;;;;;;3.03;1.23;;;21.00;99.90;25.10;101556.00;;;;6245290;23;20152;-68
2023/07/13 09:30:15;;;;;;;0.88;0.80;;;22.10;99.90;26.90;101585.00;;;;6244902;23;20146;-70
2023/07/13 09:32:58;;;;;;;1.27;1.02;;;23.30;99.90;26.50;101588.00;;;;6244814;23;20197;-71
2023/07/13 09:35:31;;;;;;;1.70;0.43;;;23.40;99.90;24.20;101605.00;;;;6244969;23;20501;-70
2023/07/13 09:38:16;;;;;;;1.45;1.20;;;22.40;99.90;23.60;101569.00;;;;6244928;23;20184;-70
2023/07/13 09:41:19;;;;;;;1.67;1.05;;;21.70;99.90;24.60;101554.00;;;;6245300;23;20248;-69
2023/07/13 09:44:08;;;;;;;0.60;0.47;;;21.90;99.90;25.40;101587.00;;;;6246116;22;20539;-69
2023/07/13 09:46:35;;;;;;;1.33;1.23;;;22.70;99.90;25.60;101603.00;;;;6245081;23;20204;-70
2023/07/13 09:49:03;;;;;;;0.32;0.32;;;23.10;99.90;25.70;101601.00;;;;6219184;23;20165;-70
2023/07/13 09:51:39;;;;;;;1.42;1.13;;;23.00;99.90;26.10;101604.00;;;;6244872;23;20574;-70
2023/07/13 09:54:05;;;;;;;1.10;1.00;;;23.20;99.90;25.30;101617.00;;;;6244694;23;20148;-70
2023/07/13 09:56:32;;;;;;;0.90;0.90;;;23.10;99.90;25.40;101619.00;;;;6246510;23;20138;-70
2023/07/13 09:59:01;;;;;;;1.63;1.33;;;22.90;99.90;25.90;101622.00;;;;6246436;22;20142;-70
2023/07/13 10:01:38;;;;;;;2.03;1.02;;;23.10;99.90;24.50;101626.00;;;;6244612;23;20161;-70
2023/07/13 10:04:18;;;;;;;0.35;0.35;;;22.50;99.90;26.70;101616.00;;;;6244577;23;20254;-70
2023/07/13 10:06:45;;;;;;;0.20;0.20;;;23.10;99.90;26.20;101617.00;;;;6245049;23;20206;-70
2023/07/13 10:09:15;;;;;;;0.38;0.38;;;23.60;99.90;26.70;101615.00;;;;6244573;23;20138;-70
2023/07/13 10:11:41;;;;;;;0.80;0.80;;;23.60;99.90;25.90;101630.00;;;;6244926;23;20149;-70
2023/07/13 10:14:18;;;;;;;0.30;0.30;;;23.40;99.90;25.70;101605.00;;;;6245800;23;20157;-70
2023/07/13 10:16:46;;;;;;;11.75;0.80;;;22.90;99.90;25.20;101601.00;;;;6244786;23;20153;-70
2023/07/13 10:19:24;;;;;;;0.60;0.50;;;22.70;99.90;26.60;101627.00;;;;6244890;23;20137;-70
2023/07/13 10:33:26;;;;;;;4.10;1.27;;;24.80;99.90;26.50;101633.00;;;;5102517;27;1371228;-68
2023/07/13 10:36:14;;;;;;;7.97;1.33;;;24.50;99.90;26.40;101628.00;;;;5116294;28;20184;-68
2023/07/13 10:38:41;;;;;;;1.05;1.05;;;24.40;99.90;27.10;101630.00;;;;5108176;28;20275;-68
2023/07/13 10:42:00;;;;;;;0.28;0.28;;;24.20;99.90;26.40;101628.00;;;;5099881;28;20275;-68
2023/07/13 10:44:38;;;;;;;17.05;2.35;;;24.30;99.90;25.30;101646.00;;;;5122175;28;20534;-68
2023/07/13 10:47:14;;;;;;;2.60;1.10;;;23.30;99.90;26.60;101626.00;;;;5117291;27;20274;-68
2023/07/13 10:49:40;;;;;;;2.38;0.63;;;23.80;99.90;26.80;101621.00;;;;5118713;28;20176;-68
2023/07/13 10:52:46;;;;;;;0.60;0.50;;;23.60;99.90;25.40;101648.00;;;;5113735;28;20649;-68
2023/07/13 10:55:31;;;;;;;0.93;0.63;;;23.20;99.90;27.00;101632.00;;;;5115560;28;20240;-68
2023/07/13 10:58:11;;;;;;;0.20;0.20;;;23.60;99.90;26.70;101600.00;;;;5124761;28;20183;-68
2023/07/13 11:00:48;;;;;;;1.52;1.42;;;23.50;99.90;25.00;101683.00;;;;5130640;27;20248;-68
2023/07/13 11:03:19;;;;;;;0.28;0.28;;;22.90;99.90;26.50;101690.00;;;;5119585;28;20227;-68
2023/07/13 11:05:51;;;;;;;0.20;0.20;;;23.00;99.90;26.50;101701.00;;;;5114171;28;20191;-68
2023/07/13 11:08:37;;;;;;;0.10;0.10;;;23.00;99.90;27.10;101689.00;;;;5112632;28;20191;-68
2023/07/13 11:11:03;;;;;;;0.13;0.13;;;23.00;99.90;26.00;101625.00;;;;5113633;28;20680;-68
2023/07/13 11:13:47;;;;;;;0.10;0.10;;;22.50;99.90;25.10;101592.00;;;;5113103;28;20650;-68
2023/07/13 11:16:22;;;;;;;0.20;0.20;;;22.00;99.90;24.60;101585.00;;;;5110535;28;20196;-69
2023/07/13 11:18:50;;;;;;;5.28;2.58;;;21.40;99.90;24.30;101623.00;;;;5125986;28;20554;-69
2023/07/13 11:21:26;;;;;;;0.40;0.40;;;20.90;99.90;24.00;101631.00;;;;5111118;28;20188;-69
2023/07/13 11:24:24;;;;;;;0.30;0.30;;;20.60;99.90;23.70;101634.00;;;;5125571;28;20182;-69
2023/07/13 11:27:08;;;;;;;0.30;0.30;;;20.30;99.90;23.70;101635.00;;;;5120679;28;20190;-70
2023/07/13 11:29:39;;;;;;;0.30;0.30;;;20.20;99.90;23.50;101643.00;;;;5126406;27;20183;-70
2023/07/13 11:32:30;;;;;;;0.73;0.67;;;20.10;99.90;21.90;101613.00;;;;5108614;28;20300;-70
2023/07/13 11:34:59;;;;;;;4.93;2.97;;;19.40;99.90;20.90;101605.00;;;;5139273;27;20196;-69
2023/07/13 11:37:30;;;;;;;1.47;1.23;;;18.90;99.90;21.10;101558.00;;;;5110198;28;20193;-69
2023/07/13 11:39:55;;;;;;;2.40;1.17;;;18.70;99.90;20.30;101584.00;;;;5107715;28;20713;-70
2023/07/13 11:42:31;;;;;;;0.60;0.50;;;18.30;99.90;20.00;101600.00;;;;5108582;28;20280;-69
2023/07/13 11:45:02;;;;;;;1.53;1.43;;;18.00;99.90;20.30;101595.00;;;;5102410;28;20273;-69
2023/07/13 11:47:31;;;;;;;3.27;1.77;;;18.00;99.90;20.30;101604.00;;;;5094288;28;20182;-69
2023/07/13 11:49:56;;;;;;;2.20;0.87;;;18.00;99.90;21.50;101587.00;;;;5105542;28;20721;-69
2023/07/13 11:52:33;;;;;;;2.13;1.70;;;18.40;99.90;20.30;101589.00;;;;5098910;28;20292;-69
2023/07/13 11:55:04;;;;;;;0.40;0.40;;;18.30;99.90;20.80;101576.00;;;;5095985;28;20290;-69
2023/07/13 11:57:50;;;;;;;0.53;0.53;;;18.40;99.90;21.10;101558.00;;;;5082217;28;20288;-69
2023/07/13 12:00:22;;;;;;;0.50;0.50;;;18.60;99.90;22.60;101570.00;;;;5090869;28;20608;-69
2023/07/13 12:02:51;;;;;;;2.33;1.40;;;19.10;99.90;22.50;101572.00;;;;5097857;28;20196;-69
2023/07/13 12:05:20;;;;;;;0.50;0.50;;;19.60;99.90;21.90;101565.00;;;;5104045;28;20195;-69
2023/07/13 12:07:46;;;;;;;1.00;0.80;;;19.60;99.90;21.90;101561.00;;;;5093943;28;20229;-69
2023/07/13 12:10:24;;;;;;;1.17;1.08;;;19.50;99.90;21.90;101536.00;;;;5099040;28;20267;-69
2023/07/13 12:12:56;;;;;;;0.60;0.60;;;19.50;99.90;22.30;101559.00;;;;5106103;28;20290;-68
2023/07/13 12:15:46;;;;;;;0.40;0.40;;;19.30;99.90;23.00;101538.00;;;;5101377;28;20538;-69
2023/07/13 12:18:21;;;;;;;0.80;0.80;;;19.70;99.90;22.70;101581.00;;;;5113525;28;20660;-69
2023/07/13 12:20:48;;;;;;;1.97;0.63;;;19.70;99.90;22.70;101584.00;;;;5101697;28;20184;-69
2023/07/13 12:23:35;;;;;;;0.50;0.50;;;19.90;99.90;23.70;101581.00;;;;5104976;28;20194;-69
2023/07/13 12:26:09;;;;;;;0.30;0.30;;;20.20;99.90;24.70;101582.00;;;;5086756;28;20274;-69
2023/07/13 12:28:43;;;;;;;0.83;0.70;;;20.90;99.90;22.30;101540.00;;;;5094037;28;20235;-69
2023/07/13 12:31:31;;;;;;;1.25;1.15;;;20.60;99.90;22.60;101578.00;;;;5105526;28;20180;-69
2023/07/13 12:34:11;;;;;;;0.32;0.32;;;20.20;99.90;22.80;101580.00;;;;5094433;28;20667;-68
2023/07/13 12:36:45;;;;;;;0.45;0.45;;;20.10;99.90;22.70;101586.00;;;;5097094;28;20213;-68
2023/07/13 12:39:20;;;;;;;0.43;0.40;;;20.40;99.90;23.00;101573.00;;;;5109352;28;20641;-68
2023/07/13 12:41:48;;;;;;;2.33;1.20;;;20.40;99.90;23.30;101598.00;;;;5101268;28;20230;-68
2023/07/13 12:44:18;;;;;;;0.10;0.10;;;20.90;99.90;24.10;101584.00;;;;5114674;28;20202;-68
2023/07/13 12:47:11;;;;;;;0.20;0.20;;;21.10;99.90;23.80;101591.00;;;;5109518;28;20176;-68
2023/07/13 12:50:09;;;;;;;0.10;0.10;;;21.40;99.90;24.80;101580.00;;;;5099752;28;20259;-68
2023/07/13 12:52:59;;;;;;;0.10;0.10;;;21.50;99.90;25.20;101602.00;;;;5093958;28;20197;-68
2023/07/13 12:55:59;;;;;;;0.20;0.20;;;21.80;99.90;25.00;101568.00;;;;5096947;28;20250;-68
2023/07/13 12:58:46;;;;;;;0.30;0.30;;;22.10;99.90;25.10;101589.00;;;;5108488;28;20191;-68
2023/07/13 13:01:14;;;;;;;0.20;0.20;;;22.30;99.90;25.90;101570.00;;;;5114045;28;20175;-68
2023/07/13 13:03:54;;;;;;;0.95;0.93;;;22.50;99.90;24.40;101586.00;;;;5097317;28;20200;-68
2023/07/13 13:06:30;;;;;;;2.58;1.38;;;22.40;99.90;23.50;101587.00;;;;5088491;28;20211;-68
2023/07/13 13:09:19;;;;;;;0.38;0.38;;;21.80;99.90;25.20;101597.00;;;;5094948;28;20229;-69
2023/07/13 13:11:57;;;;;;;1.10;1.00;;;21.80;99.90;26.30;101596.00;;;;5105343;28;20227;-69
2023/07/13 13:14:25;;;;;;;0.10;0.10;;;22.80;99.90;27.40;101577.00;;;;5101543;28;20271;-70
2023/07/13 13:16:54;;;;;;;0.47;0.47;;;23.40;99.90;26.20;101597.00;;;;5091532;28;20203;-70
2023/07/13 13:19:49;;;;;;;0.20;0.20;;;23.40;99.90;25.50;101587.00;;;;5083685;28;20273;-70
2023/07/13 13:22:19;;;;;;;0.35;0.35;;;23.20;99.90;25.70;101586.00;;;;5111094;28;20689;-69
2023/07/13 13:25:10;;;;;;;0.17;0.17;;;22.70;99.90;25.50;101594.00;;;;5104237;28;20179;-69
2023/07/13 13:27:58;;;;;;;0.10;0.10;;;22.80;99.90;26.30;101550.00;;;;5110294;27;20580;-69
2023/07/13 13:30:33;;;;;;;0.10;0.10;;;23.00;99.90;27.40;101605.00;;;;5112260;28;20284;-70
2023/07/13 13:33:11;;;;;;;1.35;1.25;;;23.40;99.90;26.00;101630.00;;;;5094741;28;20230;-70
2023/07/13 13:35:41;;;;;;;2.25;0.60;;;23.60;99.90;24.40;101584.00;;;;5098580;28;20188;-69
2023/07/13 13:38:20;;;;;;;0.00;0.00;;;22.60;99.90;25.10;101576.00;;;;5103855;28;20192;-69
2023/07/13 13:40:52;;;;;;;14.70;0.63;;;22.10;99.90;24.50;101578.00;;;;5097454;28;20322;-69
2023/07/13 13:43:40;;;;;;;0.32;0.32;;;22.00;99.90;25.80;101600.00;;;;5097797;28;20188;-69
2023/07/13 13:46:36;;;;;;;0.55;0.52;;;22.60;99.90;27.00;101622.00;;;;5111142;28;20525;-69
2023/07/13 13:49:05;;;;;;;0.10;0.10;;;23.00;99.90;27.20;101655.00;;;;5100403;28;20259;-69
2023/07/13 13:51:50;;;;;;;0.50;0.50;;;23.50;99.90;26.50;101661.00;;;;5078220;28;20692;-69
2023/07/13 13:54:21;;;;;;;0.10;0.10;;;23.60;99.90;25.80;101612.00;;;;5095475;28;20215;-69
2023/07/13 13:56:58;;;;;;;0.10;0.10;;;23.10;99.90;25.40;101605.00;;;;5100582;28;20197;-69
2023/07/13 13:59:37;;;;;;;0.10;0.10;;;22.50;99.90;26.80;101606.00;;;;5112334;28;20190;-69
2023/07/13 14:02:27;;;;;;;0.20;0.20;;;22.70;99.90;26.70;101629.00;;;;5088033;28;20195;-69
2023/07/13 14:05:10;;;;;;;0.10;0.10;;;23.00;99.90;25.80;101629.00;;;;5099146;28;20176;-69
2023/07/13 14:07:50;;;;;;;0.17;0.17;;;22.90;99.90;26.30;101633.00;;;;5110181;28;20633;-69
2023/07/13 14:10:46;;;;;;;0.10;0.10;;;22.90;99.90;27.40;101623.00;;;;5087742;28;20187;-69
2023/07/13 14:13:57;;;;;;;0.20;0.20;;;23.10;99.90;26.30;101641.00;;;;5076410;28;20212;-69
2023/07/13 14:16:37;;;;;;;0.80;0.32;;;23.00;99.90;26.10;101637.00;;;;5104914;28;20694;-69
2023/07/13 14:19:16;;;;;;;0.32;0.32;;;22.90;99.90;25.40;101613.00;;;;5108696;28;20212;-69
2023/07/13 14:21:54;;;;;;;0.10;0.10;;;22.60;99.90;26.70;101620.00;;;;5091681;28;20207;-69
2023/07/13 14:24:43;;;;;;;0.75;0.75;;;22.70;99.90;26.80;101637.00;;;;5097460;28;20226;-69
2023/07/13 14:27:31;;;;;;;0.10;0.10;;;23.00;99.90;26.70;101642.00;;;;5095430;28;20183;-69
2023/07/13 14:30:08;;;;;;;0.10;0.10;;;23.00;99.90;26.20;101637.00;;;;5104972;28;20197;-69
2023/07/13 14:32:40;;;;;;;0.10;0.10;;;23.00;99.90;26.30;101630.00;;;;5096544;28;20207;-69
2023/07/13 14:35:24;;;;;;;0.15;0.15;;;22.90;99.90;26.90;101652.00;;;;5100819;28;20201;-69
2023/07/13 14:37:58;;;;;;;0.20;0.20;;;23.10;99.90;27.10;101633.00;;;;5094842;28;20226;-69
2023/07/13 14:40:31;;;;;;;0.28;0.28;;;23.20;99.90;26.50;101650.00;;;;5094847;28;20215;-69
2023/07/13 14:43:16;;;;;;;0.38;0.38;;;23.20;99.90;26.20;101643.00;;;;5085413;28;20196;-69
2023/07/13 14:46:04;;;;;;;0.10;0.10;;;23.00;99.90;26.90;101633.00;;;;5097448;28;20194;-69
2023/07/13 14:48:51;;;;;;;0.10;0.10;;;23.00;99.90;27.30;101645.00;;;;5110356;28;20187;-69
2023/07/13 14:51:39;;;;;;;0.38;0.38;;;23.20;99.90;26.90;101641.00;;;;5099136;28;20232;-69
2023/07/13 14:54:17;;;;;;;0.10;0.10;;;23.20;99.90;27.50;101632.00;;;;5100857;28;20744;-69
2023/07/13 14:56:45;;;;;;;0.25;0.25;;;23.40;99.90;27.20;101648.00;;;;5092007;28;20201;-69
2023/07/13 14:59:14;;;;;;;0.10;0.10;;;23.50;99.90;28.30;101636.00;;;;5105490;28;20634;-69
2023/07/13 15:02:01;;;;;;;0.10;0.10;;;23.80;99.90;27.90;101664.00;;;;5104646;28;20645;-69
2023/07/13 15:04:50;;;;;;;0.10;0.10;;;23.90;99.90;28.50;101652.00;;;;5103328;28;20192;-69
2023/07/13 15:07:31;;;;;;;0.10;0.10;;;24.10;99.90;26.00;101659.00;;;;5087666;28;20196;-69
2023/07/13 15:10:17;;;;;;;0.10;0.10;;;23.60;99.90;27.60;101621.00;;;;5090982;28;20275;-69
2023/07/13 15:12:52;;;;;;;0.10;0.10;;;23.60;99.90;27.90;101660.00;;;;5103201;28;20203;-69
2023/07/13 15:15:33;;;;;;;0.10;0.10;;;23.90;99.90;28.30;101602.00;;;;5095626;28;20259;-69
2023/07/13 15:18:05;;;;;;;0.10;0.10;;;24.00;99.90;26.90;101675.00;;;;5092154;28;20254;-69
2023/07/13 15:21:00;;;;;;;0.10;0.10;;;23.70;99.90;27.40;101655.00;;;;5108341;28;20181;-69
2023/07/13 15:23:50;;;;;;;0.10;0.10;;;23.60;99.90;27.30;101671.00;;;;5091361;28;20196;-69
2023/07/13 15:26:40;;;;;;;0.10;0.10;;;23.40;99.90;28.60;101653.00;;;;5101133;28;20184;-69
2023/07/13 15:29:17;;;;;;;0.10;0.10;;;23.80;99.90;29.00;101652.00;;;;5095470;28;20185;-69
2023/07/13 15:31:49;;;;;;;0.10;0.10;;;24.30;99.90;26.00;101682.00;;;;5104079;28;20212;-68
2023/07/13 15:34:24;;;;;;;0.50;0.50;;;23.40;99.90;25.90;101678.00;;;;5102320;28;20200;-69
2023/07/13 15:37:00;;;;;;;0.38;0.38;;;22.90;99.90;27.10;101643.00;;;;5094194;28;20287;-69
2023/07/13 15:39:32;;;;;;;5.82;0.75;;;23.00;99.90;28.40;101654.00;;;;5091854;28;20211;-69
2023/07/13 15:42:10;;;;;;;0.10;0.10;;;23.80;99.90;26.30;101665.00;;;;5112261;28;20191;-69
2023/07/13 15:44:56;;;;;;;0.10;0.10;;;23.40;99.90;28.60;101643.00;;;;5095859;28;20616;-69
2023/07/13 15:47:30;;;;;;;0.10;0.10;;;24.00;99.90;29.80;101639.00;;;;5094861;28;20249;-69
2023/07/13 15:50:05;;;;;;;0.35;0.35;;;24.80;99.90;29.60;101600.00;;;;5099907;28;20582;-69
2023/07/13 15:52:41;;;;;;;0.10;0.10;;;25.10;99.90;30.10;101586.00;;;;5079825;28;20199;-69
2023/07/13 15:55:28;;;;;;;0.10;0.10;;;25.60;99.90;30.50;101578.00;;;;5078553;28;20187;-69
2023/07/13 15:58:00;;;;;;;0.10;0.10;;;25.70;99.90;30.20;101620.00;;;;5098149;28;20188;-69
2023/07/13 16:00:50;;;;;;;0.10;0.10;;;25.80;99.90;30.70;101589.00;;;;5094475;28;20184;-69
2023/07/13 16:03:25;;;;;;;0.15;0.15;;;25.90;99.90;28.40;101656.00;;;;5095767;28;20212;-70
2023/07/13 16:06:22;;;;;;;0.25;0.25;;;24.90;99.90;27.10;101682.00;;;;5106969;28;20638;-69
2023/07/13 16:08:55;;;;;;;0.10;0.10;;;24.10;99.90;27.50;101671.00;;;;5112549;27;20646;-69
2023/07/13 16:11:36;;;;;;;0.15;0.15;;;23.80;99.90;27.00;101632.00;;;;5090614;28;20545;-69
2023/07/13 16:14:26;;;;;;;0.90;0.57;;;23.60;99.90;28.00;101655.00;;;;5106087;28;20180;-69
2023/07/13 16:17:11;;;;;;;0.32;0.32;;;24.00;99.90;27.80;101637.00;;;;5111075;28;20183;-69
2023/07/13 16:19:45;;;;;;;1.15;0.88;;;24.30;99.90;27.90;101648.00;;;;5092536;28;20184;-69
2023/07/13 16:22:23;;;;;;;0.10;0.10;;;24.10;99.90;27.70;101651.00;;;;5104078;28;20187;-69
2023/07/13 16:24:56;;;;;;;0.55;0.40;;;24.00;99.90;28.60;101629.00;;;;5097512;28;20181;-69
2023/07/13 16:27:27;;;;;;;0.57;0.57;;;24.40;99.90;26.20;101663.00;;;;5097743;28;20552;-69
2023/07/13 16:30:21;;;;;;;0.43;0.43;;;24.00;99.90;27.40;101652.00;;;;5099751;28;20184;-68
2023/07/13 16:33:05;;;;;;;0.40;0.40;;;23.80;99.90;28.50;101629.00;;;;5080849;28;20219;-69
2023/07/13 16:35:46;;;;;;;0.10;0.10;;;24.30;99.90;28.40;101621.00;;;;5107702;28;20195;-69
2023/07/13 16:38:34;;;;;;;0.10;0.10;;;24.50;99.90;28.10;101607.00;;;;5098636;28;20187;-69
2023/07/13 16:41:21;;;;;;;0.10;0.10;;;24.30;99.90;27.90;101636.00;;;;5096033;28;20600;-69
2023/07/13 16:44:12;;;;;;;0.13;0.13;;;24.10;99.90;27.30;101646.00;;;;5106228;28;20215;-69
2023/07/13 16:46:41;;;;;;;0.10;0.10;;;24.10;99.90;27.80;101637.00;;;;5073930;28;20228;-69
2023/07/13 16:49:31;;;;;;;0.10;0.10;;;24.00;99.90;29.00;101622.00;;;;5108790;28;20192;-69
2023/07/13 16:52:04;;;;;;;0.10;0.10;;;24.30;99.90;29.20;101606.00;;;;5077997;28;20240;-69
2023/07/13 16:54:38;;;;;;;0.10;0.10;;;24.70;99.90;28.30;101577.00;;;;5113779;28;20177;-69
2023/07/13 16:57:37;;;;;;;0.10;0.10;;;24.70;99.90;27.40;101636.00;;;;5096293;28;20653;-68
2023/07/13 17:00:18;;;;;;;0.60;0.40;;;24.00;99.90;28.50;101618.00;;;;5111248;28;20195;-69
2023/07/13 17:03:09;;;;;;;0.10;0.10;;;24.20;99.90;29.60;101592.00;;;;5099053;28;20207;-69
2023/07/13 17:05:45;;;;;;;0.10;0.10;;;24.80;99.90;29.70;101597.00;;;;5084187;28;20534;-69
2023/07/13 17:08:38;;;;;;;0.10;0.10;;;25.20;99.90;29.50;101601.00;;;;5107004;28;20187;-69
2023/07/13 17:11:19;;;;;;;0.10;0.10;;;25.30;99.90;29.60;101594.00;;;;5084569;28;20647;-69
2023/07/13 17:13:57;;;;;;;0.10;0.10;;;25.20;99.90;29.20;101615.00;;;;5091694;28;20220;-69
2023/07/13 17:16:46;;;;;;;0.35;0.35;;;24.90;99.90;28.20;101633.00;;;;5106560;28;20180;-69
2023/07/13 17:19:21;;;;;;;0.43;0.17;;;24.80;99.90;26.70;101659.00;;;;5107589;28;20224;-68
2023/07/13 17:22:05;;;;;;;0.10;0.10;;;24.10;99.90;28.90;101620.00;;;;5105289;28;20206;-69
2023/07/13 17:24:44;;;;;;;1.75;0.77;;;24.30;99.90;28.50;101621.00;;;;5083246;28;20207;-70
2023/07/13 17:27:21;;;;;;;0.40;0.40;;;24.40;99.90;29.00;101597.00;;;;5099266;28;20179;-69
2023/07/13 17:29:56;;;;;;;0.10;0.10;;;24.60;99.90;29.50;101574.00;;;;5088393;28;20208;-69
2023/07/13 17:32:28;;;;;;;0.25;0.25;;;24.90;99.90;28.00;101647.00;;;;5105973;28;20214;-69
2023/07/13 17:35:14;;;;;;;0.10;0.10;;;24.60;99.90;27.30;101650.00;;;;5106074;28;20187;-68
2023/07/13 17:37:42;;;;;;;0.30;0.30;;;24.10;99.90;26.40;101646.00;;;;5113478;28;20186;-68
2023/07/13 17:40:17;;;;;;;0.15;0.15;;;23.60;99.90;27.90;101658.00;;;;5103679;28;20276;-68
2023/07/13 17:42:54;;;;;;;0.10;0.10;;;23.80;99.90;26.80;101679.00;;;;5097074;28;20592;-69
2023/07/13 17:45:31;;;;;;;2.42;0.32;;;23.50;99.90;27.30;101677.00;;;;5092846;28;20215;-69
2023/07/13 17:48:05;;;;;;;0.20;0.20;;;23.50;99.90;26.90;101684.00;;;;5099015;28;20182;-69
2023/07/13 17:50:44;;;;;;;0.10;0.10;;;23.40;99.90;27.30;101672.00;;;;5097101;28;20223;-69
2023/07/13 17:53:24;;;;;;;0.60;0.55;;;23.60;99.90;26.90;101643.00;;;;5112676;28;20249;-69
2023/07/13 17:56:05;;;;;;;0.10;0.10;;;23.50;99.90;26.70;101673.00;;;;5103472;28;20182;-69
2023/07/13 17:58:33;;;;;;;0.75;0.65;;;23.30;99.90;26.10;101716.00;;;;5097001;28;20249;-69
2023/07/13 18:01:03;;;;;;;0.25;0.25;;;23.10;99.90;25.80;101717.00;;;;5107293;28;20177;-69
2023/07/13 18:03:41;;;;;;;0.77;0.30;;;23.00;99.90;26.60;101709.00;;;;5096801;28;20219;-69
2023/07/13 18:06:18;;;;;;;0.20;0.20;;;23.00;99.90;26.20;101710.00;;;;5100466;28;20378;-69
2023/07/13 18:09:18;;;;;;;1.35;1.05;;;23.00;99.90;26.60;101712.00;;;;5106462;28;20634;-69
2023/07/13 18:11:48;;;;;;;0.20;0.20;;;22.90;99.90;27.80;101672.00;;;;5098541;28;20265;-69
2023/07/13 18:14:17;;;;;;;0.20;0.20;;;23.40;99.90;26.30;101716.00;;;;5084038;28;20590;-68
2023/07/13 18:17:04;;;;;;;0.93;0.80;;;23.30;99.90;25.90;101716.00;;;;5106687;28;20257;-69
2023/07/13 18:19:44;;;;;;;0.10;0.10;;;22.80;99.90;26.80;101672.00;;;;5104514;28;20187;-69
2023/07/13 18:22:22;;;;;;;3.15;2.95;;;23.00;99.90;27.50;101691.00;;;;5097838;28;20775;-69
2023/07/13 18:24:52;;;;;;;0.45;0.45;;;23.40;99.90;27.00;101706.00;;;;5108630;28;20622;-69
2023/07/13 18:27:23;;;;;;;0.40;0.40;;;23.20;99.90;25.50;101730.00;;;;5097012;28;20198;-69
2023/07/13 18:30:14;;;;;;;0.55;0.55;;;22.90;99.90;25.90;101740.00;;;;5108015;28;20187;-69
2023/07/13 18:32:53;;;;;;;0.38;0.38;;;22.70;99.90;27.10;101722.00;;;;5100469;28;20250;-69
2023/07/13 18:35:29;;;;;;;0.30;0.30;;;23.20;99.90;26.40;101727.00;;;;5103354;28;20184;-69
2023/07/13 18:38:16;;;;;;;1.35;0.90;;;23.00;99.90;26.50;101727.00;;;;5083015;28;20300;-69
2023/07/13 18:40:51;;;;;;;0.50;0.50;;;22.80;99.90;25.80;101735.00;;;;5097896;28;20717;-69
2023/07/13 18:43:20;;;;;;;0.10;0.10;;;22.90;99.90;25.80;101731.00;;;;5092036;28;20196;-69
2023/07/13 18:45:58;;;;;;;0.10;0.10;;;22.60;99.90;27.20;101711.00;;;;5096153;28;20181;-69